aviador You're here:

LFSO Decoded Metar

NANCY OCHEY in FRANCE
Report Time2018-07-18 19:30:00
UTC Time2018-07-18 20:03:20
Flight Rules vfr VFR
Wind060° at 05 kt
W.Decomp.*RWY 02: 3.8 kt HW 3.2 kt RCW
W.Rank060° ranks 12
Current wind is below 060° avg. (6.0)
Visibility9999 m
Phenomena:N/A
Clouds:N/A
Expected CloudBase > 4,400 ft AGL from Temp-Dew spread
CeilingNone
Temp23°C (ISA +10)
Dew Point12°C (50% RH)
AAT21.8°C
QNH1016 hPa
Density Alt2,431 ft
Elevation1,148 ft
Report Wrong Elevation
Raw Report
METAR LFSO 181930Z AUTO 06005KT CAVOK 23/12 Q1016=

Extra information for LFSO:More info

Metar Taf Metar & Taf Last 4 Metars F.Rules Stats Wind Profile Meteogram Temp Stats Airport Information Weather charts Add Link Nearby VenuesMetar ALERT Operation Metar Decoded Social comments